createdAt,value
2018-05-27T01:30:22.698Z,98.81
2018-05-27T01:30:23.269Z,98.81
2018-05-27T01:30:23.870Z,98.38
2018-05-27T01:30:24.468Z,98.76
2018-05-27T01:30:25.071Z,98.05
2018-05-27T01:30:25.668Z,98.19
2018-05-27T01:30:26.267Z,98.71
2018-05-27T01:30:26.868Z,98.47
2018-05-27T01:31:21.373Z,99.48
2018-05-27T01:31:21.951Z,99.53
2018-05-27T01:31:22.545Z,99.05
2018-05-27T01:31:23.145Z,99.05
2018-05-27T01:31:23.745Z,98.96
2018-05-27T01:31:24.354Z,99.05
2018-05-27T01:31:24.943Z,99.19
2018-05-27T01:31:25.543Z,99.10
2018-05-27T01:32:19.115Z,99.19
2018-05-27T01:32:19.618Z,99.19
2018-05-27T01:32:20.220Z,99.67
2018-05-27T01:32:20.821Z,99.29
2018-05-27T01:32:21.421Z,99.29
2018-05-27T01:32:22.018Z,99.29
2018-05-27T01:32:22.617Z,99.67
2018-05-27T01:32:23.216Z,99.48
2018-05-27T01:33:16.789Z,98.43
2018-05-27T01:33:17.354Z,98.14
2018-05-27T01:33:17.955Z,98.33
2018-05-27T01:33:18.554Z,98.38
2018-05-27T01:33:19.158Z,97.95
2018-05-27T01:33:19.755Z,97.95
2018-05-27T01:33:20.355Z,98.05
2018-05-27T01:33:20.955Z,98.10
2018-05-27T01:34:15.455Z,98.43
2018-05-27T01:34:16.029Z,98.24
2018-05-27T01:34:16.630Z,97.95
2018-05-27T01:34:17.228Z,98.33
2018-05-27T01:34:17.828Z,98.57
2018-05-27T01:34:18.428Z,98.57
2018-05-27T01:34:19.028Z,98.19
2018-05-27T01:34:19.633Z,98.52
2018-05-27T01:35:14.132Z,98.71
2018-05-27T01:35:14.707Z,98.28
2018-05-27T01:35:15.306Z,98.14
2018-05-27T01:35:15.905Z,98.62
2018-05-27T01:35:16.505Z,98.62
2018-05-27T01:35:17.106Z,98.71
2018-05-27T01:35:17.707Z,98.33
2018-05-27T01:35:18.305Z,98.10
2018-05-27T01:36:11.787Z,98.24
2018-05-27T01:36:12.357Z,98.81
2018-05-27T01:36:12.956Z,98.62
2018-05-27T01:36:13.557Z,98.33
2018-05-27T01:36:14.163Z,98.81
2018-05-27T01:36:14.757Z,98.76
2018-05-27T01:36:15.356Z,98.05
2018-05-27T01:36:15.960Z,98.62
2018-05-27T01:37:10.462Z,98.91
2018-05-27T01:37:11.033Z,99.05
2018-05-27T01:37:11.636Z,99.00
2018-05-27T01:37:12.233Z,99.10
2018-05-27T01:37:12.832Z,98.81
2018-05-27T01:37:13.432Z,99.15
2018-05-27T01:37:14.033Z,99.10
2018-05-27T01:37:14.633Z,99.10
2018-05-27T01:38:09.137Z,99.87
2018-05-27T01:38:09.709Z,99.67
2018-05-27T01:38:10.309Z,99.67
2018-05-27T01:38:10.911Z,99.00
2018-05-27T01:38:11.509Z,99.38
2018-05-27T01:38:12.108Z,99.53
2018-05-27T01:38:12.708Z,99.67
2018-05-27T01:38:13.308Z,99.10
2018-05-27T01:39:06.794Z,98.38
2018-05-27T01:39:07.362Z,98.28
2018-05-27T01:39:07.961Z,98.14
2018-05-27T01:39:08.561Z,98.28
2018-05-27T01:39:09.172Z,98.19
2018-05-27T01:39:09.763Z,98.19
2018-05-27T01:39:10.360Z,98.05
2018-05-27T01:39:10.961Z,98.10
2018-05-27T01:40:05.465Z,99.05
2018-05-27T01:40:06.036Z,99.43
2018-05-27T01:40:06.637Z,98.67
2018-05-27T01:40:07.236Z,99.24
2018-05-27T01:40:07.836Z,99.15
2018-05-27T01:40:08.437Z,98.67
2018-05-27T01:40:09.036Z,99.05
2018-05-27T01:40:09.634Z,98.43
2018-05-27T01:41:03.117Z,97.90
2018-05-27T01:41:03.688Z,98.05
2018-05-27T01:41:04.290Z,98.10
2018-05-27T01:41:04.892Z,98.05
2018-05-27T01:41:05.490Z,98.00
2018-05-27T01:41:06.089Z,97.95
2018-05-27T01:41:06.689Z,97.47
2018-05-27T01:41:07.291Z,97.90
2018-05-27T01:42:01.793Z,98.19
2018-05-27T01:42:02.366Z,98.28
2018-05-27T01:42:02.966Z,98.19
2018-05-27T01:42:03.565Z,98.24
2018-05-27T01:42:04.164Z,98.19
2018-05-27T01:42:04.763Z,98.14
2018-05-27T01:42:05.365Z,98.38
2018-05-27T01:42:05.965Z,98.38
2018-05-27T01:43:00.468Z,98.38
2018-05-27T01:43:01.041Z,98.10
2018-05-27T01:43:01.640Z,98.10
2018-05-27T01:43:02.241Z,97.90
2018-05-27T01:43:02.841Z,98.19
2018-05-27T01:43:03.452Z,98.38
2018-05-27T01:43:04.039Z,98.19
2018-05-27T01:43:04.640Z,98.38
2018-05-27T01:43:58.120Z,98.19
2018-05-27T01:43:58.693Z,98.10
2018-05-27T01:43:59.292Z,98.00
2018-05-27T01:43:59.895Z,98.10
2018-05-27T01:44:00.493Z,98.10
2018-05-27T01:44:01.092Z,98.19
2018-05-27T01:44:01.693Z,98.19
2018-05-27T01:44:02.293Z,97.66
2018-05-27T01:44:56.796Z,97.90
2018-05-27T01:44:57.378Z,97.71
2018-05-27T01:44:57.968Z,97.71
2018-05-27T01:44:58.570Z,98.10
2018-05-27T01:44:59.168Z,98.19
2018-05-27T01:44:59.768Z,97.80
2018-05-27T01:45:00.368Z,98.38
2018-05-27T01:45:00.969Z,98.10
2018-05-27T01:45:55.473Z,98.19
2018-05-27T01:45:56.047Z,98.28
2018-05-27T01:45:56.643Z,98.38
2018-05-27T01:45:57.242Z,98.00
2018-05-27T01:45:57.844Z,98.38
2018-05-27T01:45:58.442Z,98.38
2018-05-27T01:45:59.043Z,98.10
2018-05-27T01:45:59.644Z,98.57
2018-05-27T01:46:53.125Z,99.05
2018-05-27T01:46:53.696Z,99.34
2018-05-27T01:46:54.296Z,99.24
2018-05-27T01:46:54.898Z,99.24
2018-05-27T01:46:55.496Z,99.24
2018-05-27T01:46:56.095Z,98.96
2018-05-27T01:46:56.695Z,99.24
2018-05-27T01:46:57.295Z,99.15
2018-05-27T01:47:50.775Z,98.19
2018-05-27T01:47:51.348Z,98.19
2018-05-27T01:47:51.948Z,98.19
2018-05-27T01:47:52.547Z,98.47
2018-05-27T01:47:53.150Z,98.38
2018-05-27T01:47:53.748Z,98.28
2018-05-27T01:47:54.348Z,98.28
2018-05-27T01:47:54.948Z,98.28
2018-05-27T01:48:48.428Z,99.24
2018-05-27T01:48:49.001Z,99.05
2018-05-27T01:48:49.602Z,99.15
2018-05-27T01:48:50.205Z,99.05
2018-05-27T01:48:50.800Z,99.05
2018-05-27T01:48:51.400Z,99.15
2018-05-27T01:48:51.999Z,99.24
2018-05-27T01:48:52.600Z,99.24
2018-05-27T01:49:47.104Z,98.10
2018-05-27T01:49:47.675Z,98.19
2018-05-27T01:49:48.274Z,98.10
2018-05-27T01:49:48.882Z,98.28
2018-05-27T01:49:49.474Z,98.28
2018-05-27T01:49:50.082Z,98.28
2018-05-27T01:49:50.675Z,98.19
2018-05-27T01:49:51.274Z,98.28
2018-05-27T01:50:45.782Z,98.47
2018-05-27T01:50:46.350Z,98.28
2018-05-27T01:50:46.950Z,98.19
2018-05-27T01:50:47.552Z,98.19
2018-05-27T01:50:48.151Z,98.28
2018-05-27T01:50:48.752Z,98.38
2018-05-27T01:50:49.351Z,98.28
2018-05-27T01:50:49.950Z,98.19
2018-05-27T01:51:44.455Z,99.43
2018-05-27T01:51:45.025Z,99.43
2018-05-27T01:51:45.626Z,99.53
2018-05-27T01:51:46.230Z,99.53
2018-05-27T01:51:46.825Z,98.96
2018-05-27T01:51:47.428Z,98.96
2018-05-27T01:51:48.028Z,99.15
2018-05-27T01:51:48.627Z,99.15
2018-05-27T01:52:42.107Z,98.10
2018-05-27T01:52:42.679Z,97.90
2018-05-27T01:52:43.285Z,98.38
2018-05-27T01:52:43.879Z,97.90
2018-05-27T01:52:44.479Z,98.28
2018-05-27T01:52:45.079Z,97.90
2018-05-27T01:52:45.682Z,97.90
2018-05-27T01:52:46.277Z,98.19
2018-05-27T01:53:40.782Z,98.86
2018-05-27T01:53:41.353Z,98.67
2018-05-27T01:53:41.953Z,98.67
2018-05-27T01:53:42.553Z,98.67
2018-05-27T01:53:43.153Z,99.43
2018-05-27T01:53:43.754Z,98.67
2018-05-27T01:53:44.354Z,99.43
2018-05-27T01:53:44.954Z,99.53
2018-05-27T01:54:38.435Z,98.10
2018-05-27T01:54:39.007Z,97.71
2018-05-27T01:54:39.606Z,97.33
2018-05-27T01:54:40.207Z,97.52
2018-05-27T01:54:40.806Z,98.10
2018-05-27T01:54:41.407Z,97.61
2018-05-27T01:54:42.008Z,98.00
2018-05-27T01:54:42.611Z,97.61
2018-05-27T01:55:37.109Z,98.28
2018-05-27T01:55:37.681Z,98.19
2018-05-27T01:55:38.281Z,98.19
2018-05-27T01:55:38.885Z,98.28
2018-05-27T01:55:39.482Z,98.38
2018-05-27T01:55:40.082Z,98.28
2018-05-27T01:55:40.683Z,98.38
2018-05-27T01:55:41.282Z,98.10
2018-05-27T01:56:34.762Z,98.57
2018-05-27T01:56:35.334Z,98.67
2018-05-27T01:56:35.934Z,98.28
2018-05-27T01:56:36.534Z,98.67
2018-05-27T01:56:37.138Z,98.47
2018-05-27T01:56:37.738Z,98.47
2018-05-27T01:56:38.333Z,98.47
2018-05-27T01:56:38.933Z,98.47
2018-05-27T01:57:33.452Z,98.10
2018-05-27T01:57:34.009Z,98.10
2018-05-27T01:57:34.610Z,98.28
2018-05-27T01:57:35.210Z,98.19
2018-05-27T01:57:35.809Z,98.28
2018-05-27T01:57:36.411Z,97.80
2018-05-27T01:57:37.008Z,98.10
2018-05-27T01:57:37.607Z,98.10
2018-05-27T01:58:31.089Z,98.47
2018-05-27T01:58:31.664Z,98.38
2018-05-27T01:58:32.262Z,97.80
2018-05-27T01:58:32.867Z,98.19
2018-05-27T01:58:33.462Z,98.10
2018-05-27T01:58:34.062Z,97.90
2018-05-27T01:58:34.662Z,97.90
2018-05-27T01:58:35.261Z,97.71
2018-05-27T01:59:29.764Z,98.67
2018-05-27T01:59:30.335Z,98.57
2018-05-27T01:59:30.935Z,98.28
2018-05-27T01:59:31.540Z,98.47
2018-05-27T01:59:32.136Z,98.57
2018-05-27T01:59:32.736Z,98.47
2018-05-27T01:59:33.339Z,98.47
2018-05-27T01:59:33.941Z,98.47
2018-05-27T02:00:28.439Z,98.38
2018-05-27T02:00:29.012Z,98.47
2018-05-27T02:00:29.612Z,98.47
2018-05-27T02:00:30.215Z,98.47
2018-05-27T02:00:30.813Z,98.67
2018-05-27T02:00:31.413Z,98.47
2018-05-27T02:00:32.011Z,98.28
2018-05-27T02:00:32.612Z,98.47
2018-05-27T02:01:27.117Z,98.57
2018-05-27T02:01:27.689Z,98.28
2018-05-27T02:01:28.288Z,98.38
2018-05-27T02:01:28.891Z,98.47
2018-05-27T02:01:29.491Z,98.38
2018-05-27T02:01:30.089Z,98.38
2018-05-27T02:01:30.692Z,98.19
2018-05-27T02:01:31.287Z,98.28
2018-05-27T02:02:24.770Z,98.00
2018-05-27T02:02:25.340Z,98.00
2018-05-27T02:02:25.939Z,98.28
2018-05-27T02:02:26.544Z,98.19
2018-05-27T02:02:27.139Z,98.10
2018-05-27T02:02:27.745Z,98.10
2018-05-27T02:02:28.340Z,98.47
2018-05-27T02:02:28.944Z,98.19
2018-05-27T02:03:23.443Z,98.47
2018-05-27T02:03:24.024Z,98.28
2018-05-27T02:03:24.614Z,98.28
2018-05-27T02:03:25.219Z,98.47
2018-05-27T02:03:25.815Z,98.47
2018-05-27T02:03:26.415Z,98.28
2018-05-27T02:03:27.015Z,98.47
2018-05-27T02:03:27.615Z,98.28
2018-05-27T02:04:22.118Z,98.47
2018-05-27T02:04:22.691Z,98.28
2018-05-27T02:04:23.291Z,98.28
2018-05-27T02:04:23.893Z,98.57
2018-05-27T02:04:24.490Z,98.47
2018-05-27T02:04:25.091Z,98.47
2018-05-27T02:04:25.691Z,98.57
2018-05-27T02:04:26.291Z,98.28
2018-05-27T02:05:20.803Z,98.19
2018-05-27T02:05:21.368Z,98.19
2018-05-27T02:05:21.967Z,98.19
2018-05-27T02:05:22.569Z,98.28
2018-05-27T02:05:23.167Z,98.47
2018-05-27T02:05:23.766Z,98.19
2018-05-27T02:05:24.367Z,98.28
2018-05-27T02:05:24.967Z,98.38
2018-05-27T02:06:19.487Z,97.80
2018-05-27T02:06:20.043Z,97.80
2018-05-27T02:06:20.643Z,98.00
2018-05-27T02:06:21.242Z,98.19
2018-05-27T02:06:21.844Z,97.61
2018-05-27T02:06:22.442Z,97.80
2018-05-27T02:06:23.041Z,97.80
2018-05-27T02:06:23.642Z,97.90
2018-05-27T02:07:18.145Z,98.19
2018-05-27T02:07:18.719Z,98.38
2018-05-27T02:07:19.322Z,98.10
2018-05-27T02:07:19.925Z,97.47
2018-05-27T02:07:20.518Z,97.52
2018-05-27T02:07:21.117Z,97.90
2018-05-27T02:07:21.716Z,97.61
2018-05-27T02:07:22.317Z,97.61
2018-05-27T02:08:16.821Z,98.05
2018-05-27T02:08:17.393Z,98.19
2018-05-27T02:08:17.995Z,98.10
2018-05-27T02:08:18.597Z,98.19
2018-05-27T02:08:19.193Z,97.90
2018-05-27T02:08:19.794Z,98.10
2018-05-27T02:08:20.393Z,98.00
2018-05-27T02:08:20.993Z,98.28
2018-05-27T02:09:14.472Z,97.33
2018-05-27T02:09:15.047Z,97.90
2018-05-27T02:09:15.646Z,97.23
2018-05-27T02:09:16.249Z,97.42
2018-05-27T02:09:16.849Z,97.71
2018-05-27T02:09:17.447Z,97.42
2018-05-27T02:09:18.046Z,97.42
2018-05-27T02:09:18.646Z,97.42
2018-05-27T02:10:13.149Z,98.14
2018-05-27T02:10:13.721Z,98.19
2018-05-27T02:10:14.321Z,98.19
2018-05-27T02:10:14.926Z,98.28
2018-05-27T02:10:15.521Z,98.28
2018-05-27T02:10:16.120Z,97.90
2018-05-27T02:10:16.721Z,98.19
2018-05-27T02:10:17.321Z,98.19
2018-05-27T02:11:10.801Z,98.47
2018-05-27T02:11:11.373Z,98.47
2018-05-27T02:11:11.974Z,98.47
2018-05-27T02:11:12.576Z,98.28
2018-05-27T02:11:13.174Z,98.47
2018-05-27T02:11:13.775Z,98.28
2018-05-27T02:11:14.373Z,98.28
2018-05-27T02:11:14.973Z,98.47
2018-05-27T02:12:09.477Z,97.90
2018-05-27T02:12:10.049Z,97.52
2018-05-27T02:12:10.649Z,97.71
2018-05-27T02:12:11.252Z,97.52
2018-05-27T02:12:11.848Z,97.61
2018-05-27T02:12:12.448Z,97.61
2018-05-27T02:12:13.048Z,97.52
2018-05-27T02:12:13.649Z,98.10
2018-05-27T02:13:08.153Z,97.90
2018-05-27T02:13:08.724Z,97.95
2018-05-27T02:13:09.326Z,98.38
2018-05-27T02:13:09.930Z,98.00
2018-05-27T02:13:10.524Z,97.80
2018-05-27T02:13:11.125Z,97.71
2018-05-27T02:13:11.724Z,97.90
2018-05-27T02:13:12.324Z,97.71
2018-05-27T02:14:06.829Z,98.24
2018-05-27T02:14:07.408Z,98.52
2018-05-27T02:14:08.001Z,98.52
2018-05-27T02:14:08.608Z,98.28
2018-05-27T02:14:09.202Z,98.33
2018-05-27T02:14:09.819Z,98.28
2018-05-27T02:14:10.398Z,98.14
2018-05-27T02:14:10.998Z,98.19
2018-05-27T02:15:04.480Z,98.24
2018-05-27T02:15:05.056Z,98.43
2018-05-27T02:15:05.652Z,98.67
2018-05-27T02:15:06.255Z,98.57
2018-05-27T02:15:06.852Z,98.47
2018-05-27T02:15:07.451Z,98.52
2018-05-27T02:15:08.060Z,98.24
2018-05-27T02:15:08.652Z,98.67
2018-05-27T02:16:02.132Z,98.14
2018-05-27T02:16:02.704Z,98.28
2018-05-27T02:16:03.304Z,98.43
2018-05-27T02:16:03.908Z,98.24
2018-05-27T02:16:04.503Z,98.24
2018-05-27T02:16:05.103Z,98.28
2018-05-27T02:16:05.704Z,98.28
2018-05-27T02:16:06.304Z,98.14
2018-05-27T02:16:59.785Z,97.85
2018-05-27T02:17:00.357Z,97.85
2018-05-27T02:17:00.956Z,97.85
2018-05-27T02:17:01.559Z,97.90
2018-05-27T02:17:02.163Z,97.80
2018-05-27T02:17:02.756Z,97.90
2018-05-27T02:17:03.355Z,97.85
2018-05-27T02:17:03.955Z,97.66
2018-05-27T02:17:57.436Z,97.47
2018-05-27T02:17:58.008Z,98.05
2018-05-27T02:17:58.607Z,98.05
2018-05-27T02:17:59.214Z,98.05
2018-05-27T02:17:59.806Z,97.95
2018-05-27T02:18:00.405Z,98.05
2018-05-27T02:18:01.006Z,98.05
2018-05-27T02:18:01.605Z,98.10
2018-05-27T02:18:56.110Z,98.24
2018-05-27T02:18:56.682Z,98.33
2018-05-27T02:18:57.291Z,98.33
2018-05-27T02:18:57.883Z,98.43
2018-05-27T02:18:58.482Z,98.33
2018-05-27T02:18:59.082Z,98.33
2018-05-27T02:18:59.684Z,98.24
2018-05-27T02:19:00.283Z,98.43
2018-05-27T02:19:53.762Z,97.38
2018-05-27T02:19:54.336Z,97.38
2018-05-27T02:19:54.935Z,97.38
2018-05-27T02:19:55.537Z,97.38
2018-05-27T02:19:56.140Z,97.38
2018-05-27T02:19:56.736Z,97.38
2018-05-27T02:19:57.336Z,97.38
2018-05-27T02:19:57.934Z,97.38
2018-05-27T02:20:52.438Z,97.66
2018-05-27T02:20:53.009Z,97.66
2018-05-27T02:20:53.610Z,97.66
2018-05-27T02:20:54.223Z,97.66
2018-05-27T02:20:54.810Z,97.38
2018-05-27T02:20:55.410Z,97.66
2018-05-27T02:20:56.011Z,97.75
2018-05-27T02:20:56.609Z,97.66
2018-05-27T02:21:50.091Z,96.99
2018-05-27T02:21:50.663Z,96.99
2018-05-27T02:21:51.263Z,96.99
2018-05-27T02:21:51.865Z,97.09
2018-05-27T02:21:52.462Z,97.66
2018-05-27T02:21:53.063Z,97.18
2018-05-27T02:21:53.662Z,97.18
2018-05-27T02:21:54.262Z,97.66
2018-05-27T02:22:47.742Z,98.05
2018-05-27T02:22:48.314Z,98.33
2018-05-27T02:22:48.915Z,98.05
2018-05-27T02:22:49.517Z,98.14
2018-05-27T02:22:50.115Z,98.05
2018-05-27T02:22:50.713Z,98.05
2018-05-27T02:22:51.314Z,98.14
2018-05-27T02:22:51.914Z,98.05
2018-05-27T02:23:45.393Z,97.18
2018-05-27T02:23:45.966Z,97.28
2018-05-27T02:23:46.565Z,97.56
2018-05-27T02:23:47.169Z,97.28
2018-05-27T02:23:47.766Z,97.75
2018-05-27T02:23:48.365Z,97.75
2018-05-27T02:23:48.968Z,97.66
2018-05-27T02:23:49.567Z,97.66
2018-05-27T02:24:44.069Z,97.18
2018-05-27T02:24:44.641Z,97.28
2018-05-27T02:24:45.242Z,97.28
2018-05-27T02:24:45.845Z,97.28
2018-05-27T02:24:46.440Z,97.28
2018-05-27T02:24:47.041Z,97.47
2018-05-27T02:24:47.641Z,97.56
2018-05-27T02:24:48.241Z,97.28
2018-05-27T02:25:41.720Z,98.05
2018-05-27T02:25:42.294Z,97.85
2018-05-27T02:25:42.894Z,98.14
2018-05-27T02:25:43.496Z,98.05
2018-05-27T02:25:44.095Z,97.85
2018-05-27T02:25:44.696Z,98.33
2018-05-27T02:25:45.292Z,97.95
2018-05-27T02:25:45.893Z,97.95
2018-05-27T02:26:40.398Z,97.09
2018-05-27T02:26:40.968Z,97.66
2018-05-27T02:26:41.576Z,97.28
2018-05-27T02:26:42.171Z,97.47
2018-05-27T02:26:42.769Z,97.56
2018-05-27T02:26:43.367Z,96.89
2018-05-27T02:26:43.968Z,96.99
2018-05-27T02:26:44.568Z,97.18
2018-05-27T02:27:38.049Z,96.89
2018-05-27T02:27:38.621Z,96.70
2018-05-27T02:27:39.221Z,96.51
2018-05-27T02:27:39.825Z,96.80
2018-05-27T02:27:40.421Z,96.89
2018-05-27T02:27:41.020Z,96.89
2018-05-27T02:27:41.621Z,96.89
2018-05-27T02:27:42.220Z,96.89
2018-05-27T02:28:36.723Z,96.42
2018-05-27T02:28:37.296Z,96.42
2018-05-27T02:28:37.896Z,96.70
2018-05-27T02:28:38.497Z,96.51
2018-05-27T02:28:39.096Z,96.61
2018-05-27T02:28:39.696Z,96.61
2018-05-27T02:28:40.295Z,96.42
2018-05-27T02:28:40.896Z,96.80
2018-05-27T02:29:35.400Z,96.80
2018-05-27T02:29:35.972Z,96.99
2018-05-27T02:29:36.571Z,97.09
2018-05-27T02:29:37.174Z,96.99
2018-05-27T02:29:37.775Z,97.28
2018-05-27T02:29:38.370Z,97.09
2018-05-27T02:29:38.979Z,97.09
2018-05-27T02:29:39.570Z,96.99
2018-05-27T02:30:34.074Z,96.51
2018-05-27T02:30:34.648Z,97.09
2018-05-27T02:30:35.246Z,96.89
2018-05-27T02:30:35.853Z,96.61
2018-05-27T02:30:36.448Z,96.42
2018-05-27T02:30:37.046Z,96.70
2018-05-27T02:30:37.647Z,96.70
2018-05-27T02:30:38.247Z,96.61
2018-05-27T02:31:32.751Z,96.89
2018-05-27T02:31:33.327Z,96.51
2018-05-27T02:31:33.923Z,96.89
2018-05-27T02:31:34.527Z,96.99
2018-05-27T02:31:35.123Z,96.89
2018-05-27T02:31:35.726Z,96.80
2018-05-27T02:31:36.324Z,96.61
2018-05-27T02:31:36.924Z,96.80
2018-05-27T02:32:30.404Z,97.18
2018-05-27T02:32:30.978Z,97.38
2018-05-27T02:32:31.575Z,97.38
2018-05-27T02:32:32.179Z,97.38
2018-05-27T02:32:32.779Z,97.38
2018-05-27T02:32:33.381Z,97.09
2018-05-27T02:32:33.976Z,97.47
2018-05-27T02:32:34.581Z,97.18
2018-05-27T02:33:28.059Z,97.38
2018-05-27T02:33:28.629Z,97.38
2018-05-27T02:33:29.228Z,97.38
2018-05-27T02:33:29.831Z,97.28
2018-05-27T02:33:30.430Z,96.99
2018-05-27T02:33:31.026Z,96.99
2018-05-27T02:33:31.626Z,97.09
2018-05-27T02:33:32.226Z,97.66
2018-05-27T02:34:26.734Z,96.99
2018-05-27T02:34:27.333Z,97.09
2018-05-27T02:34:27.903Z,96.80
2018-05-27T02:34:28.506Z,96.51
2018-05-27T02:34:29.103Z,97.09
2018-05-27T02:34:29.701Z,96.99
2018-05-27T02:34:30.308Z,96.61
2018-05-27T02:34:30.901Z,97.09
2018-05-27T02:35:25.405Z,95.84
2018-05-27T02:35:25.978Z,95.84
2018-05-27T02:35:26.586Z,96.61
2018-05-27T02:35:27.181Z,96.80
2018-05-27T02:35:27.779Z,96.42
2018-05-27T02:35:28.378Z,95.84
2018-05-27T02:35:28.977Z,96.32
2018-05-27T02:35:29.577Z,96.32
2018-05-27T02:36:23.058Z,96.03
2018-05-27T02:36:23.632Z,96.03
2018-05-27T02:36:24.230Z,95.75
2018-05-27T02:36:24.837Z,95.94
2018-05-27T02:36:25.431Z,96.03
2018-05-27T02:36:26.030Z,95.84
2018-05-27T02:36:26.629Z,95.84
2018-05-27T02:36:27.232Z,95.84
2018-05-27T02:37:20.714Z,95.46
2018-05-27T02:37:21.283Z,95.27
2018-05-27T02:37:21.884Z,95.75
2018-05-27T02:37:22.485Z,95.46
2018-05-27T02:37:23.081Z,95.75
2018-05-27T02:37:23.686Z,95.36
2018-05-27T02:37:24.282Z,95.36
2018-05-27T02:37:24.881Z,95.46
2018-05-27T02:38:19.385Z,95.84
2018-05-27T02:38:19.958Z,96.03
2018-05-27T02:38:20.559Z,95.75
2018-05-27T02:38:21.161Z,96.03
2018-05-27T02:38:21.757Z,96.03
2018-05-27T02:38:22.358Z,95.84
2018-05-27T02:38:22.958Z,95.94
2018-05-27T02:38:23.558Z,95.94
2018-05-27T02:39:17.037Z,96.22
2018-05-27T02:39:17.609Z,96.03
2018-05-27T02:39:18.210Z,96.03
2018-05-27T02:39:18.811Z,95.94
2018-05-27T02:39:19.409Z,96.03
2018-05-27T02:39:20.009Z,95.65
2018-05-27T02:39:20.609Z,95.75
2018-05-27T02:39:21.211Z,96.03
2018-05-27T02:40:14.688Z,96.32
2018-05-27T02:40:15.261Z,96.42
2018-05-27T02:40:15.862Z,96.13
2018-05-27T02:40:16.465Z,96.13
2018-05-27T02:40:17.061Z,96.13
2018-05-27T02:40:17.661Z,96.13
2018-05-27T02:40:18.276Z,95.94
2018-05-27T02:40:18.861Z,96.22
2018-05-27T02:41:12.341Z,96.99
2018-05-27T02:41:12.916Z,96.99
2018-05-27T02:41:13.513Z,96.99
2018-05-27T02:41:14.119Z,96.99
2018-05-27T02:41:14.712Z,96.99
2018-05-27T02:41:15.315Z,96.80
2018-05-27T02:41:15.913Z,96.99
2018-05-27T02:41:16.517Z,96.80
2018-05-27T02:42:11.015Z,96.22
2018-05-27T02:42:11.589Z,96.03
2018-05-27T02:42:12.187Z,96.22
2018-05-27T02:42:12.791Z,96.13
2018-05-27T02:42:13.388Z,96.22
2018-05-27T02:42:13.987Z,96.22
2018-05-27T02:42:14.587Z,96.13
2018-05-27T02:42:15.189Z,96.22
2018-05-27T02:43:09.692Z,95.65
2018-05-27T02:43:10.268Z,95.46
2018-05-27T02:43:10.868Z,95.56
2018-05-27T02:43:11.467Z,95.84
2018-05-27T02:43:12.067Z,95.84
2018-05-27T02:43:12.666Z,95.84
2018-05-27T02:43:13.266Z,95.94
2018-05-27T02:43:13.867Z,96.13
2018-05-27T02:44:07.343Z,95.56
2018-05-27T02:44:07.917Z,95.56
2018-05-27T02:44:08.521Z,95.56
2018-05-27T02:44:09.119Z,95.65
2018-05-27T02:44:09.718Z,95.56
2018-05-27T02:44:10.318Z,95.56
2018-05-27T02:44:10.916Z,95.65
2018-05-27T02:44:11.518Z,95.36
2018-05-27T02:45:06.020Z,95.36
2018-05-27T02:45:06.590Z,95.27
2018-05-27T02:45:07.191Z,95.17
2018-05-27T02:45:07.796Z,95.17
2018-05-27T02:45:08.391Z,95.17
2018-05-27T02:45:08.991Z,94.89
2018-05-27T02:45:09.590Z,95.17
2018-05-27T02:45:10.192Z,94.69
2018-05-27T02:46:03.671Z,94.12
2018-05-27T02:46:04.249Z,94.12
2018-05-27T02:46:04.844Z,94.79
2018-05-27T02:46:05.447Z,94.60
2018-05-27T02:46:06.044Z,94.31
2018-05-27T02:46:06.643Z,94.60
2018-05-27T02:46:07.244Z,94.69
2018-05-27T02:46:07.842Z,94.50
2018-05-27T02:47:02.346Z,95.36
2018-05-27T02:47:02.936Z,95.75
2018-05-27T02:47:03.529Z,94.98
2018-05-27T02:47:04.119Z,95.75
2018-05-27T02:47:04.718Z,95.84
2018-05-27T02:47:05.320Z,95.17
2018-05-27T02:47:05.918Z,95.07
2018-05-27T02:47:06.525Z,95.65
2018-05-27T02:48:01.022Z,94.21
2018-05-27T02:48:01.598Z,94.31
2018-05-27T02:48:02.192Z,94.69
2018-05-27T02:48:02.793Z,94.60
2018-05-27T02:48:03.392Z,94.79
2018-05-27T02:48:03.992Z,94.69
2018-05-27T02:48:04.594Z,94.69
2018-05-27T02:48:05.191Z,94.69
2018-05-27T02:48:59.705Z,95.75
2018-05-27T02:49:00.269Z,95.56
2018-05-27T02:49:00.871Z,95.94
2018-05-27T02:49:01.476Z,95.46
2018-05-27T02:49:02.067Z,95.65
2018-05-27T02:49:02.667Z,95.84
2018-05-27T02:49:03.268Z,95.84
2018-05-27T02:49:03.870Z,96.42
2018-05-27T02:49:57.349Z,95.36
2018-05-27T02:49:57.934Z,95.46
2018-05-27T02:49:58.526Z,95.07
2018-05-27T02:49:59.124Z,95.36
2018-05-27T02:49:59.723Z,94.98
2018-05-27T02:50:00.321Z,95.17
2018-05-27T02:50:00.922Z,94.89
2018-05-27T02:50:01.522Z,94.89
2018-05-27T02:50:56.031Z,94.79
2018-05-27T02:50:56.597Z,94.60
2018-05-27T02:50:57.197Z,94.89
2018-05-27T02:50:57.800Z,94.98
2018-05-27T02:50:58.396Z,94.89
2018-05-27T02:50:58.997Z,94.79
2018-05-27T02:50:59.597Z,95.17
2018-05-27T02:51:00.196Z,94.98
2018-05-27T02:51:54.707Z,94.12
2018-05-27T02:51:55.278Z,94.60
2018-05-27T02:51:55.873Z,94.60
2018-05-27T02:51:56.479Z,94.60
2018-05-27T02:51:57.073Z,94.60
2018-05-27T02:51:57.672Z,94.60
2018-05-27T02:51:58.273Z,94.50
2018-05-27T02:51:58.873Z,94.79
2018-05-27T02:52:52.357Z,94.69
2018-05-27T02:52:52.938Z,94.89
2018-05-27T02:52:53.532Z,94.21
2018-05-27T02:52:54.134Z,94.89
2018-05-27T02:52:54.743Z,94.79
2018-05-27T02:52:55.327Z,94.98
2018-05-27T02:52:55.933Z,94.89
2018-05-27T02:52:56.526Z,94.89
2018-05-27T02:53:51.032Z,94.69
2018-05-27T02:53:51.602Z,94.79
2018-05-27T02:53:52.201Z,94.60
2018-05-27T02:53:52.809Z,94.79
2018-05-27T02:53:53.405Z,94.79
2018-05-27T02:53:54.001Z,94.69
2018-05-27T02:53:54.604Z,94.69
2018-05-27T02:53:55.204Z,94.79
2018-05-27T02:54:48.688Z,94.02
2018-05-27T02:54:49.255Z,94.12
2018-05-27T02:54:49.856Z,93.93
2018-05-27T02:54:50.455Z,94.02
2018-05-27T02:54:51.056Z,93.83
2018-05-27T02:54:51.660Z,94.12
2018-05-27T02:54:52.256Z,94.02
2018-05-27T02:54:52.855Z,93.93
2018-05-27T02:55:47.362Z,94.21
2018-05-27T02:55:47.931Z,94.12
2018-05-27T02:55:48.532Z,94.21
2018-05-27T02:55:49.140Z,94.21
2018-05-27T02:55:49.733Z,94.31
2018-05-27T02:55:50.330Z,94.31
2018-05-27T02:55:50.929Z,94.40
2018-05-27T02:55:51.530Z,94.40
2018-05-27T02:56:45.014Z,93.93
2018-05-27T02:56:45.582Z,93.93
2018-05-27T02:56:46.190Z,94.12
2018-05-27T02:56:46.793Z,94.02
2018-05-27T02:56:47.381Z,93.93
2018-05-27T02:56:47.981Z,94.12
2018-05-27T02:56:48.585Z,93.93
2018-05-27T02:56:49.181Z,93.93
2018-05-27T02:57:43.687Z,94.02
2018-05-27T02:57:44.258Z,94.12
2018-05-27T02:57:44.859Z,94.02
2018-05-27T02:57:45.458Z,93.93
2018-05-27T02:57:46.058Z,94.02
2018-05-27T02:57:46.657Z,93.83
2018-05-27T02:57:47.257Z,94.40
2018-05-27T02:57:47.856Z,94.21
2018-05-27T02:58:42.362Z,93.93
2018-05-27T02:58:42.936Z,94.02
2018-05-27T02:58:43.532Z,93.83
2018-05-27T02:58:44.135Z,93.93
2018-05-27T02:58:44.733Z,93.93
2018-05-27T02:58:45.333Z,94.31
2018-05-27T02:58:45.933Z,94.12
2018-05-27T02:58:46.539Z,93.83
2018-05-27T02:59:40.019Z,93.35
2018-05-27T02:59:40.585Z,93.35
2018-05-27T02:59:41.187Z,93.93
2018-05-27T02:59:41.786Z,93.83
2018-05-27T02:59:42.384Z,93.74
2018-05-27T02:59:42.987Z,93.74
2018-05-27T02:59:43.586Z,93.83
2018-05-27T02:59:44.185Z,93.83
2018-05-27T03:00:38.691Z,93.07
2018-05-27T03:00:39.262Z,92.87
2018-05-27T03:00:39.860Z,92.97
2018-05-27T03:00:40.464Z,93.64
2018-05-27T03:00:41.078Z,92.87
2018-05-27T03:00:41.665Z,92.97
2018-05-27T03:00:42.261Z,93.07
2018-05-27T03:00:42.861Z,92.97
2018-05-27T03:01:37.366Z,93.93
2018-05-27T03:01:37.936Z,93.74
2018-05-27T03:01:38.539Z,94.02
2018-05-27T03:01:39.141Z,94.02
2018-05-27T03:01:39.736Z,94.12
2018-05-27T03:01:40.336Z,93.74
2018-05-27T03:01:40.937Z,93.74
2018-05-27T03:01:41.538Z,94.02
2018-05-27T03:02:36.043Z,93.93
2018-05-27T03:02:36.612Z,94.02
2018-05-27T03:02:37.211Z,94.12
2018-05-27T03:02:37.817Z,94.12
2018-05-27T03:02:38.412Z,93.74
2018-05-27T03:02:39.011Z,93.93
2018-05-27T03:02:39.611Z,94.02
2018-05-27T03:02:40.212Z,94.12
2018-05-27T03:03:33.695Z,94.50
2018-05-27T03:03:34.264Z,94.40
2018-05-27T03:03:34.865Z,94.69
2018-05-27T03:03:35.465Z,94.50
2018-05-27T03:03:36.064Z,94.79